Time;durP1;ratioP1;P1;durP2;ratioP2;P2;SDS_P1;SDS_P2;PMS_P1;PMS_P2;Temp;Humidity;BMP_temperature;BMP_pressure;BME280_temperature;BME280_humidity;BME280_pressure;Samples;Min_cycle;Max_cycle;Signal;HPM_P1;HPM_P2
2022/12/21 00:00:42;;;;;;;15.23;11.03;;;9.30;99.90;;;;;;10435451;28;20239;-77
2022/12/21 00:05:42;;;;;;;13.23;10.67;;;9.30;99.90;;;;;;10434365;28;20236;-76
2022/12/21 00:10:43;;;;;;;15.10;10.97;;;9.30;99.90;;;;;;10434979;28;20707;-77
2022/12/21 00:15:44;;;;;;;17.13;10.47;;;9.30;99.90;;;;;;10431720;28;20235;-77
2022/12/21 00:20:56;;;;;;;15.67;10.90;;;9.30;99.90;;;;;;10431019;28;20707;-77
2022/12/21 00:26:01;;;;;;;14.13;10.60;;;9.20;99.90;;;;;;10439394;28;20224;-77
2022/12/21 00:31:17;;;;;;;14.70;10.90;;;9.30;99.90;;;;;;10438681;28;20226;-76
2022/12/21 00:36:19;;;;;;;14.40;11.53;;;9.30;99.90;;;;;;10442371;28;20299;-76
2022/12/21 00:41:26;;;;;;;14.17;10.97;;;9.30;99.90;;;;;;10435420;28;20907;-78
2022/12/21 00:46:30;;;;;;;16.07;11.23;;;9.30;99.90;;;;;;10446614;28;20718;-77
2022/12/21 00:51:33;;;;;;;14.53;11.03;;;9.40;99.90;;;;;;10438616;28;20625;-75
2022/12/21 00:56:34;;;;;;;18.13;11.57;;;9.40;99.90;;;;;;10434052;28;20220;-75
2022/12/21 01:01:34;;;;;;;15.37;11.70;;;9.40;99.90;;;;;;10431931;28;20227;-79
2022/12/21 01:06:35;;;;;;;17.80;11.73;;;9.40;99.90;;;;;;10435655;28;20687;-77
2022/12/21 01:11:36;;;;;;;18.60;12.63;;;9.40;99.90;;;;;;10438174;28;20214;-77
2022/12/21 01:16:36;;;;;;;21.17;12.73;;;9.40;99.90;;;;;;10439199;28;20698;-76
2022/12/21 01:21:37;;;;;;;17.73;12.50;;;9.40;99.90;;;;;;10432766;28;20224;-78
2022/12/21 01:26:38;;;;;;;15.40;11.67;;;9.40;99.90;;;;;;10440690;28;20222;-76
2022/12/21 01:31:39;;;;;;;13.83;11.53;;;9.30;99.90;;;;;;10433416;28;20231;-77
2022/12/21 01:36:39;;;;;;;17.80;12.50;;;9.30;99.90;;;;;;10433206;28;20701;-76
2022/12/21 01:41:40;;;;;;;17.17;13.07;;;9.30;99.90;;;;;;10436760;28;20214;-77
2022/12/21 01:46:45;;;;;;;19.20;13.60;;;9.30;99.90;;;;;;10431892;28;20254;-76
2022/12/21 01:51:50;;;;;;;17.07;13.77;;;9.30;99.90;;;;;;10433049;28;20264;-77
2022/12/21 01:56:55;;;;;;;19.27;14.53;;;9.30;99.90;;;;;;10436209;28;20285;-78
2022/12/21 02:01:58;;;;;;;18.43;14.60;;;9.30;99.90;;;;;;10429507;28;20219;-77
2022/12/21 02:06:59;;;;;;;20.10;16.30;;;9.30;99.90;;;;;;10434259;28;20223;-77
2022/12/21 02:12:04;;;;;;;22.57;15.63;;;9.20;99.90;;;;;;10428499;28;20223;-76
2022/12/21 02:17:19;;;;;;;22.87;17.93;;;9.20;99.90;;;;;;10440890;28;20246;-76
2022/12/21 02:22:38;;;;;;;25.17;18.97;;;9.20;99.90;;;;;;10428252;28;20222;-77
2022/12/21 02:28:07;;;;;;;22.10;18.60;;;9.20;99.90;;;;;;10433910;28;20222;-77
2022/12/21 02:33:22;;;;;;;24.03;19.57;;;9.20;99.90;;;;;;10426592;28;20777;-77
2022/12/21 02:38:47;;;;;;;24.47;19.40;;;9.20;99.90;;;;;;10422112;28;20254;-77
2022/12/21 02:44:13;;;;;;;24.50;20.57;;;9.20;99.90;;;;;;10431802;28;20226;-76
2022/12/21 02:49:25;;;;;;;24.60;20.13;;;9.20;99.90;;;;;;10426787;28;20607;-76
2022/12/21 02:54:27;;;;;;;26.83;21.60;;;9.20;99.90;;;;;;10428090;28;20710;-77
2022/12/21 02:59:32;;;;;;;25.90;22.73;;;9.20;99.90;;;;;;10433934;28;20740;-77
2022/12/21 03:05:12;;;;;;;28.63;22.23;;;9.20;99.90;;;;;;10433197;28;20227;-77
2022/12/21 03:10:36;;;;;;;25.97;22.10;;;9.20;99.90;;;;;;10425376;28;20601;-75
2022/12/21 03:15:50;;;;;;;32.70;21.07;;;9.20;99.90;;;;;;10429493;28;20247;-77
2022/12/21 03:21:06;;;;;;;29.73;22.63;;;9.20;99.90;;;;;;10429031;28;20230;-77
2022/12/21 03:26:15;;;;;;;25.83;21.87;;;9.20;99.90;;;;;;10424037;28;20218;-77
2022/12/21 03:31:20;;;;;;;29.43;22.97;;;9.20;99.90;;;;;;10432319;28;20229;-77
2022/12/21 03:36:26;;;;;;;31.00;23.47;;;9.20;99.90;;;;;;10440974;28;20589;-77
2022/12/21 03:41:43;;;;;;;29.13;22.27;;;9.20;99.90;;;;;;10438013;28;20218;-77
2022/12/21 03:47:07;;;;;;;28.43;22.60;;;9.20;99.90;;;;;;10431027;28;20230;-77
2022/12/21 03:52:12;;;;;;;25.87;22.10;;;9.30;99.90;;;;;;10439943;28;20234;-78
2022/12/21 03:57:15;;;;;;;24.73;20.53;;;9.20;99.90;;;;;;10447437;28;20273;-78
2022/12/21 04:02:24;;;;;;;27.50;21.70;;;9.30;99.90;;;;;;10438931;28;20718;-77
2022/12/21 04:07:27;;;;;;;26.93;19.80;;;9.30;99.90;;;;;;10433718;28;20223;-78
2022/12/21 04:12:37;;;;;;;25.77;21.07;;;9.30;99.90;;;;;;10437221;28;20257;-77
2022/12/21 04:17:40;;;;;;;26.90;21.10;;;9.30;99.90;;;;;;10437214;28;20223;-78
2022/12/21 04:28:07;;;;;;;28.93;21.03;;;9.30;99.90;;;;;;10433158;28;20219;-78
2022/12/21 04:33:10;;;;;;;25.40;20.80;;;9.30;99.90;;;;;;10440033;28;20218;-78
2022/12/21 04:38:11;;;;;;;25.13;20.37;;;9.30;99.90;;;;;;10439003;28;20257;-78
2022/12/21 04:43:11;;;;;;;22.80;19.40;;;9.30;99.90;;;;;;10437344;28;20222;-77
2022/12/21 04:48:12;;;;;;;25.47;19.03;;;9.30;99.90;;;;;;10430444;28;20686;-78
2022/12/21 04:53:16;;;;;;;23.27;19.17;;;9.40;99.90;;;;;;10445730;28;20250;-78
2022/12/21 04:58:17;;;;;;;20.63;17.53;;;9.30;99.90;;;;;;10429305;28;20271;-77
2022/12/21 05:03:19;;;;;;;23.40;18.17;;;9.40;99.90;;;;;;10437940;28;20310;-78
2022/12/21 05:08:19;;;;;;;23.03;17.57;;;9.40;99.90;;;;;;10452635;28;20705;-77
2022/12/21 05:13:20;;;;;;;21.20;17.00;;;9.40;99.90;;;;;;10430183;28;20219;-76
2022/12/21 05:18:21;;;;;;;20.73;16.37;;;9.40;99.90;;;;;;10435045;28;20219;-78
2022/12/21 05:23:21;;;;;;;20.87;17.17;;;9.40;99.90;;;;;;10429147;28;20301;-77
2022/12/21 05:28:22;;;;;;;19.97;16.43;;;9.40;99.90;;;;;;10430372;28;20214;-77
2022/12/21 05:33:23;;;;;;;17.53;15.63;;;9.50;99.90;;;;;;10435176;28;20226;-77
2022/12/21 05:38:24;;;;;;;16.67;14.67;;;9.50;99.90;;;;;;10436481;28;20227;-76
2022/12/21 05:43:28;;;;;;;18.93;15.37;;;9.60;99.90;;;;;;10432826;28;20223;-77
2022/12/21 05:48:30;;;;;;;18.77;15.63;;;9.60;99.90;;;;;;10430391;28;20234;-77
2022/12/21 05:53:30;;;;;;;17.13;15.20;;;9.60;99.90;;;;;;10431320;28;20230;-77
2022/12/21 05:58:31;;;;;;;17.43;15.07;;;9.60;99.90;;;;;;10429327;28;20223;-77
2022/12/21 06:03:31;;;;;;;20.20;16.13;;;9.60;99.90;;;;;;10436051;28;20215;-76
2022/12/21 06:08:32;;;;;;;19.80;16.53;;;9.60;99.90;;;;;;10431507;28;20600;-77
2022/12/21 06:13:33;;;;;;;24.50;16.83;;;9.60;99.90;;;;;;10429964;28;20223;-77
2022/12/21 06:18:34;;;;;;;16.90;14.77;;;9.70;99.90;;;;;;10435152;28;20332;-75
2022/12/21 06:23:35;;;;;;;19.03;14.67;;;9.70;99.90;;;;;;10438619;28;20226;-76
2022/12/21 06:28:36;;;;;;;15.23;13.60;;;9.60;99.90;;;;;;10426949;28;20912;-77
2022/12/21 06:33:37;;;;;;;15.70;14.00;;;9.70;99.90;;;;;;10428748;28;20235;-76
2022/12/21 06:38:41;;;;;;;21.87;17.27;;;9.70;99.90;;;;;;10430233;28;20589;-76
2022/12/21 06:43:42;;;;;;;18.50;14.50;;;9.80;99.90;;;;;;10434243;28;20302;-76
2022/12/21 06:48:44;;;;;;;18.43;15.40;;;9.80;99.90;;;;;;10428826;28;20231;-77
2022/12/21 06:53:47;;;;;;;16.23;14.03;;;9.90;99.90;;;;;;10428883;28;20226;-77
2022/12/21 06:58:49;;;;;;;16.33;14.33;;;9.90;99.90;;;;;;10430282;28;20319;-76
2022/12/21 07:03:50;;;;;;;16.53;13.73;;;9.90;99.90;;;;;;10426754;28;20222;-76
2022/12/21 07:08:51;;;;;;;16.50;13.23;;;9.90;99.90;;;;;;10430572;28;20736;-76
2022/12/21 07:13:53;;;;;;;15.67;13.70;;;9.90;99.90;;;;;;10440324;28;20583;-77
2022/12/21 07:18:53;;;;;;;13.83;12.43;;;9.90;99.90;;;;;;10427353;28;20315;-76
2022/12/21 07:23:54;;;;;;;15.13;12.93;;;10.00;99.90;;;;;;10430375;28;20688;-76
2022/12/21 07:28:55;;;;;;;13.87;12.40;;;10.00;99.90;;;;;;10432999;28;20210;-75
2022/12/21 07:33:55;;;;;;;15.27;11.40;;;10.10;99.90;;;;;;10426777;28;20755;-75
2022/12/21 07:38:56;;;;;;;12.80;11.50;;;10.10;99.90;;;;;;10429823;28;20226;-77
2022/12/21 07:43:56;;;;;;;12.00;10.83;;;10.10;99.90;;;;;;10425375;28;20303;-76
2022/12/21 07:48:57;;;;;;;12.33;10.03;;;10.20;99.90;;;;;;10431257;28;20314;-77
2022/12/21 07:53:58;;;;;;;11.37;9.33;;;10.20;99.90;;;;;;10432571;28;20279;-76
2022/12/21 07:59:01;;;;;;;10.13;9.10;;;10.10;99.90;;;;;;10427359;28;20223;-76
2022/12/21 08:04:02;;;;;;;10.07;8.33;;;10.20;99.90;;;;;;10430816;28;20218;-76
2022/12/21 08:09:03;;;;;;;13.37;9.50;;;10.20;99.90;;;;;;10425231;28;20314;-77
2022/12/21 08:14:03;;;;;;;13.07;8.53;;;10.20;99.90;;;;;;10434356;28;20326;-78
2022/12/21 08:19:04;;;;;;;11.77;9.07;;;10.30;99.90;;;;;;10431618;28;20314;-77
2022/12/21 08:24:04;;;;;;;12.10;8.90;;;10.40;99.90;;;;;;10445781;28;20237;-77
2022/12/21 08:29:05;;;;;;;11.83;8.13;;;10.40;99.90;;;;;;10440520;28;20222;-78
2022/12/21 08:34:06;;;;;;;10.73;8.90;;;10.30;99.90;;;;;;10431429;28;20224;-77
2022/12/21 08:39:07;;;;;;;11.47;7.73;;;10.40;99.90;;;;;;10435975;28;20211;-78
2022/12/21 08:44:10;;;;;;;12.10;8.00;;;10.40;99.90;;;;;;10430733;28;20230;-77
2022/12/21 08:49:11;;;;;;;10.03;8.00;;;10.40;99.90;;;;;;10437919;28;20283;-76
2022/12/21 08:54:12;;;;;;;10.33;7.67;;;10.50;99.90;;;;;;10438335;28;20269;-78
2022/12/21 08:59:12;;;;;;;10.03;7.20;;;10.50;99.90;;;;;;10430604;28;20227;-76
2022/12/21 09:04:13;;;;;;;8.77;7.20;;;10.60;99.90;;;;;;10436908;28;20242;-78
2022/12/21 09:09:14;;;;;;;8.20;7.20;;;10.60;99.90;;;;;;10437984;28;20226;-76
2022/12/21 09:14:14;;;;;;;8.97;7.33;;;10.70;99.90;;;;;;10430271;28;20233;-74
2022/12/21 09:19:15;;;;;;;11.57;6.70;;;10.80;99.90;;;;;;10438296;28;20255;-77
2022/12/21 09:24:15;;;;;;;10.90;7.07;;;10.90;99.90;;;;;;10439021;28;20223;-77
2022/12/21 09:29:22;;;;;;;7.43;6.17;;;11.00;99.90;;;;;;10435617;28;20223;-78
2022/12/21 09:34:22;;;;;;;8.00;6.10;;;11.00;99.90;;;;;;10431098;28;20224;-76
2022/12/21 09:39:23;;;;;;;10.60;6.40;;;11.00;99.90;;;;;;10434855;28;20235;-78
2022/12/21 09:44:56;;;;;;;7.83;6.60;;;11.00;99.90;;;;;;10429031;28;20227;-78
2022/12/21 09:50:01;;;;;;;9.53;7.33;;;11.00;99.90;;;;;;10430208;28;20237;-75
2022/12/21 09:55:11;;;;;;;9.53;7.03;;;11.00;99.90;;;;;;10434698;28;20744;-80
2022/12/21 10:00:21;;;;;;;7.10;6.40;;;11.00;99.90;;;;;;10427153;28;20639;-77
2022/12/21 10:05:49;;;;;;;8.87;5.63;;;11.10;99.90;;;;;;10432608;28;20216;-76
2022/12/21 10:11:12;;;;;;;7.47;5.20;;;11.40;99.90;;;;;;10432169;28;20223;-76
2022/12/21 10:16:41;;;;;;;6.20;4.27;;;12.20;99.90;;;;;;10426746;28;20221;-77
2022/12/21 10:21:55;;;;;;;6.03;4.30;;;13.10;99.90;;;;;;10429978;28;20222;-77
2022/12/21 10:27:07;;;;;;;6.10;4.53;;;13.10;99.90;;;;;;10434757;28;20698;-77
2022/12/21 10:32:12;;;;;;;7.50;4.70;;;12.90;99.90;;;;;;10433364;28;20230;-77
2022/12/21 10:37:16;;;;;;;9.73;4.80;;;12.70;99.90;;;;;;10425770;28;20580;-77
2022/12/21 10:42:37;;;;;;;8.37;4.23;;;12.80;99.90;;;;;;10425666;28;20224;-78
2022/12/21 10:47:37;;;;;;;5.53;3.40;;;13.60;99.90;;;;;;10434065;28;20226;-79
2022/12/21 10:52:41;;;;;;;6.73;3.63;;;17.30;99.90;;;;;;10433518;28;20574;-77
2022/12/21 10:57:43;;;;;;;5.70;4.30;;;16.10;99.90;;;;;;10435901;28;20924;-77
2022/12/21 11:02:46;;;;;;;6.13;4.10;;;14.40;99.90;;;;;;10429179;28;20218;-76
2022/12/21 11:07:46;;;;;;;7.90;4.63;;;13.20;99.90;;;;;;10437394;28;20294;-77
2022/12/21 11:12:51;;;;;;;6.93;4.53;;;12.60;99.90;;;;;;10427364;28;20309;-78
2022/12/21 11:17:52;;;;;;;8.43;4.40;;;12.40;99.90;;;;;;10431601;28;20218;-78
2022/12/21 11:22:56;;;;;;;7.90;4.73;;;12.40;99.90;;;;;;10427296;28;20231;-77
2022/12/21 11:28:05;;;;;;;7.40;4.67;;;12.40;99.90;;;;;;10430677;28;20319;-79
2022/12/21 11:33:13;;;;;;;6.57;4.40;;;12.50;99.90;;;;;;10434455;28;20227;-78
2022/12/21 11:38:15;;;;;;;7.90;4.50;;;12.80;99.90;;;;;;10424260;28;20329;-75
2022/12/21 11:43:16;;;;;;;10.40;4.73;;;13.00;99.90;;;;;;10431420;28;20227;-76
2022/12/21 11:48:36;;;;;;;6.40;4.33;;;12.80;99.90;;;;;;10427533;28;20233;-79
2022/12/21 11:54:05;;;;;;;11.60;5.17;;;12.60;99.90;;;;;;10436612;28;20234;-77
2022/12/21 11:59:14;;;;;;;6.70;4.33;;;12.40;99.90;;;;;;10438570;28;20237;-78
2022/12/21 12:04:55;;;;;;;8.10;4.73;;;12.20;99.90;;;;;;10432498;28;20223;-78
2022/12/21 12:10:14;;;;;;;7.53;4.73;;;12.10;99.90;;;;;;10438978;28;20248;-79
2022/12/21 12:15:40;;;;;;;6.87;4.63;;;12.10;99.90;;;;;;10432544;28;20250;-77
2022/12/21 12:21:18;;;;;;;5.23;4.10;;;12.30;99.90;;;;;;10436972;28;20231;-77
2022/12/21 12:26:39;;;;;;;4.97;3.70;;;12.70;99.90;;;;;;10447466;28;20231;-79
2022/12/21 12:32:11;;;;;;;4.33;3.33;;;12.90;99.90;;;;;;10432628;28;20302;-75
2022/12/21 12:37:32;;;;;;;5.77;3.00;;;13.30;99.90;;;;;;10431437;28;20227;-78
2022/12/21 12:42:51;;;;;;;5.47;3.43;;;13.50;99.90;;;;;;10408486;28;20223;-77
2022/12/21 12:48:18;;;;;;;5.60;3.57;;;13.30;99.90;;;;;;10431853;28;20224;-78
2022/12/21 12:53:24;;;;;;;7.73;3.90;;;13.00;99.90;;;;;;10437085;28;20975;-75
2022/12/21 12:58:44;;;;;;;5.67;3.33;;;12.90;99.90;;;;;;10436156;28;20242;-78
2022/12/21 13:03:53;;;;;;;4.43;3.30;;;13.00;99.90;;;;;;10433637;28;20720;-77
2022/12/21 13:09:12;;;;;;;4.80;3.43;;;13.00;99.90;;;;;;10433067;28;20248;-78
2022/12/21 13:14:25;;;;;;;5.57;3.30;;;12.80;99.90;;;;;;10437715;28;20300;-77
2022/12/21 13:19:29;;;;;;;3.80;2.73;;;12.90;99.90;;;;;;10429999;28;20254;-77
2022/12/21 13:24:46;;;;;;;4.60;2.80;;;12.90;99.90;;;;;;10433676;28;20226;-77
2022/12/21 13:30:24;;;;;;;7.07;2.93;;;12.90;99.90;;;;;;10432581;28;20693;-79
2022/12/21 13:35:36;;;;;;;4.17;2.87;;;12.80;99.90;;;;;;10424058;28;20227;-78
2022/12/21 13:41:09;;;;;;;6.20;3.27;;;12.70;99.90;;;;;;10435315;28;20313;-77
2022/12/21 13:46:10;;;;;;;8.33;3.80;;;12.60;99.90;;;;;;10427188;28;20238;-78
2022/12/21 13:51:36;;;;;;;5.40;3.10;;;12.40;99.90;;;;;;10424014;28;20220;-75
2022/12/21 13:56:49;;;;;;;3.67;3.20;;;12.40;99.90;;;;;;10431411;28;20234;-75
2022/12/21 14:02:22;;;;;;;6.70;3.63;;;12.40;99.90;;;;;;10435366;28;20228;-77
2022/12/21 14:07:45;;;;;;;5.93;3.70;;;12.50;99.90;;;;;;10404911;28;20227;-78
2022/12/21 14:13:35;;;;;;;4.30;3.70;;;12.50;99.90;;;;;;10435637;28;20693;-76
2022/12/21 14:18:39;;;;;;;5.13;3.50;;;12.40;99.90;;;;;;10450794;28;20223;-78
2022/12/21 14:23:47;;;;;;;5.77;3.40;;;12.30;99.90;;;;;;10429734;28;20215;-78
2022/12/21 14:28:49;;;;;;;5.23;4.33;;;12.10;99.90;;;;;;10427456;28;20226;-76
2022/12/21 14:33:56;;;;;;;5.67;3.73;;;12.00;99.90;;;;;;10433670;28;20748;-77
2022/12/21 14:39:08;;;;;;;9.40;4.57;;;11.90;99.90;;;;;;10427531;28;20365;-79
2022/12/21 14:44:09;;;;;;;5.07;3.97;;;11.80;99.90;;;;;;10425322;28;20214;-79
2022/12/21 14:49:23;;;;;;;5.77;4.37;;;11.80;99.90;;;;;;10435012;28;20226;-75
2022/12/21 14:54:30;;;;;;;8.00;4.37;;;11.80;99.90;;;;;;10435986;28;20222;-76
2022/12/21 15:00:01;;;;;;;6.60;4.63;;;11.70;99.90;;;;;;10431917;28;20240;-77
2022/12/21 15:05:17;;;;;;;10.03;6.27;;;11.70;99.90;;;;;;10377558;28;20220;-78
2022/12/21 15:10:50;;;;;;;8.03;5.03;;;11.70;99.90;;;;;;10426895;28;20231;-77
2022/12/21 15:16:06;;;;;;;6.10;3.90;;;11.70;99.90;;;;;;10427961;28;20233;-78
2022/12/21 15:21:31;;;;;;;6.37;4.63;;;11.60;99.90;;;;;;10426252;28;20311;-77
2022/12/21 15:26:56;;;;;;;6.40;5.30;;;11.50;99.90;;;;;;10427092;28;20224;-77
2022/12/21 15:32:07;;;;;;;9.53;6.10;;;11.50;99.90;;;;;;10427779;28;20234;-77
2022/12/21 15:37:22;;;;;;;8.43;6.40;;;11.40;99.90;;;;;;10425889;28;20717;-78
2022/12/21 15:42:43;;;;;;;8.33;5.77;;;11.20;99.90;;;;;;10426957;28;20273;-77
2022/12/21 15:47:50;;;;;;;6.20;5.20;;;11.10;99.90;;;;;;10429006;28;20227;-78
2022/12/21 15:53:02;;;;;;;5.40;4.90;;;11.00;99.90;;;;;;10434051;28;20229;-79
2022/12/21 15:58:11;;;;;;;8.53;5.13;;;11.00;99.90;;;;;;10428376;28;20728;-76
2022/12/21 16:03:14;;;;;;;6.43;4.70;;;10.90;99.90;;;;;;10425211;28;20223;-77
2022/12/21 16:08:20;;;;;;;5.63;4.20;;;10.90;99.90;;;;;;10432322;28;20223;-78
2022/12/21 16:13:28;;;;;;;6.60;4.33;;;10.80;99.90;;;;;;10431434;28;20216;-77
2022/12/21 16:18:34;;;;;;;6.63;4.43;;;10.80;99.90;;;;;;10427081;28;20643;-79
2022/12/21 16:23:40;;;;;;;6.00;4.50;;;10.80;99.90;;;;;;10429552;28;20254;-79
2022/12/21 16:28:41;;;;;;;7.13;4.47;;;10.90;99.90;;;;;;10431630;28;20216;-79
2022/12/21 16:33:47;;;;;;;7.13;4.20;;;10.80;99.90;;;;;;10438761;28;20245;-78
2022/12/21 16:38:50;;;;;;;5.73;4.10;;;10.70;99.90;;;;;;10441894;28;20327;-78
2022/12/21 16:43:59;;;;;;;5.03;4.53;;;10.60;99.90;;;;;;10431682;28;20687;-80
2022/12/21 16:49:00;;;;;;;6.73;5.20;;;10.60;99.90;;;;;;10439038;28;20231;-79
2022/12/21 16:54:00;;;;;;;5.40;4.87;;;10.50;99.90;;;;;;10434460;28;20228;-77
2022/12/21 16:59:22;;;;;;;5.97;5.00;;;10.50;99.90;;;;;;10451911;28;20223;-78
2022/12/21 17:04:35;;;;;;;7.10;5.13;;;10.50;99.90;;;;;;10432626;28;20219;-78
2022/12/21 17:09:56;;;;;;;7.07;4.93;;;10.50;99.90;;;;;;10434835;28;20227;-77
2022/12/21 17:14:57;;;;;;;7.63;5.53;;;10.50;99.90;;;;;;10438402;28;20219;-78
2022/12/21 17:20:06;;;;;;;6.80;6.10;;;10.50;99.90;;;;;;10436109;28;20701;-77
2022/12/21 17:25:14;;;;;;;9.80;5.37;;;10.50;99.90;;;;;;10430400;28;20268;-78
2022/12/21 17:30:21;;;;;;;7.40;5.83;;;10.50;99.90;;;;;;10421673;28;20196;-77
2022/12/21 17:35:22;;;;;;;8.17;5.20;;;10.50;99.90;;;;;;10436796;28;20654;-77
2022/12/21 17:40:24;;;;;;;5.57;5.07;;;10.50;99.90;;;;;;10429715;28;20227;-78
2022/12/21 17:45:25;;;;;;;9.37;5.30;;;10.50;99.90;;;;;;10434801;28;20211;-79
2022/12/21 17:50:27;;;;;;;7.53;5.10;;;10.50;99.90;;;;;;10431161;28;20238;-77
2022/12/21 17:55:29;;;;;;;10.63;5.57;;;10.50;99.90;;;;;;10440409;28;20227;-79
2022/12/21 18:00:30;;;;;;;6.87;4.80;;;10.50;99.90;;;;;;10433205;28;20314;-78
2022/12/21 18:05:31;;;;;;;6.73;4.60;;;10.60;99.90;;;;;;10433129;28;20238;-77
2022/12/21 18:10:32;;;;;;;8.23;5.40;;;10.60;99.90;;;;;;10428288;28;21326;-75
2022/12/21 18:15:35;;;;;;;7.07;5.27;;;10.70;99.90;;;;;;10430154;28;20226;-78
2022/12/21 18:20:42;;;;;;;7.17;5.77;;;10.70;99.90;;;;;;10436581;28;20227;-80
2022/12/21 18:25:43;;;;;;;7.20;5.80;;;10.70;99.90;;;;;;10446596;28;20220;-78
2022/12/21 18:30:50;;;;;;;11.63;6.70;;;10.60;99.90;;;;;;10430400;28;20300;-75
2022/12/21 18:35:51;;;;;;;11.43;6.93;;;10.50;99.90;;;;;;10440116;28;20227;-78
2022/12/21 18:40:52;;;;;;;10.10;7.33;;;10.50;99.90;;;;;;10437321;28;20609;-78
2022/12/21 18:46:00;;;;;;;7.43;6.00;;;10.40;99.90;;;;;;10431790;28;20230;-77
2022/12/21 18:51:10;;;;;;;6.10;4.83;;;10.40;99.90;;;;;;10436287;28;20235;-79
2022/12/21 18:56:12;;;;;;;4.93;4.43;;;10.40;99.90;;;;;;10435900;28;20230;-76
2022/12/21 19:01:19;;;;;;;7.47;5.40;;;10.40;99.90;;;;;;10437408;28;20638;-76
2022/12/21 19:06:26;;;;;;;7.90;4.93;;;10.40;99.90;;;;;;10419980;28;20258;-79
2022/12/21 19:11:27;;;;;;;5.93;5.03;;;10.40;99.90;;;;;;10430929;28;20721;-77
2022/12/21 19:16:30;;;;;;;6.17;5.53;;;10.50;99.90;;;;;;10427448;28;20223;-78
2022/12/21 19:21:37;;;;;;;6.97;5.57;;;10.50;99.90;;;;;;10430325;28;20588;-78
2022/12/21 19:26:37;;;;;;;6.97;5.33;;;10.60;99.90;;;;;;10428932;28;20976;-76
2022/12/21 19:31:39;;;;;;;7.00;4.90;;;10.50;99.90;;;;;;10430213;28;20230;-78
2022/12/21 19:36:48;;;;;;;5.87;4.23;;;10.60;99.90;;;;;;10433853;28;20231;-77
2022/12/21 19:41:49;;;;;;;5.00;4.50;;;10.60;99.90;;;;;;10430223;28;20249;-76
2022/12/21 19:46:50;;;;;;;6.47;3.90;;;10.70;99.90;;;;;;10436084;28;20266;-78
2022/12/21 19:51:51;;;;;;;6.07;4.00;;;10.70;99.90;;;;;;10430256;28;20215;-77
2022/12/21 19:56:55;;;;;;;7.90;3.67;;;10.80;99.90;;;;;;10428040;28;20269;-77
2022/12/21 20:01:58;;;;;;;4.23;3.53;;;10.80;99.90;;;;;;10430009;28;20269;-77
2022/12/21 20:06:58;;;;;;;6.77;3.37;;;10.80;99.90;;;;;;10425285;28;20313;-77
2022/12/21 20:11:59;;;;;;;4.57;3.20;;;10.80;99.90;;;;;;10431574;28;20349;-77
2022/12/21 20:17:03;;;;;;;4.50;2.90;;;10.80;99.90;;;;;;10438256;28;20314;-76
2022/12/21 20:22:04;;;;;;;4.07;3.27;;;10.80;99.90;;;;;;10439142;28;20233;-78
2022/12/21 20:27:05;;;;;;;5.20;3.33;;;10.80;99.90;;;;;;10432442;28;20947;-75
2022/12/21 20:32:11;;;;;;;3.00;2.70;;;10.80;99.90;;;;;;10437323;28;20227;-77
2022/12/21 20:37:14;;;;;;;4.67;3.10;;;10.80;99.90;;;;;;10439829;28;20402;-77
2022/12/21 20:47:46;;;;;;;2.97;2.67;;;10.70;99.90;;;;;;10431245;28;20237;-77
2022/12/21 20:52:46;;;;;;;4.87;2.77;;;10.70;99.90;;;;;;10446290;28;20219;-77
2022/12/21 20:57:47;;;;;;;4.23;2.90;;;10.60;99.90;;;;;;10430492;28;20664;-76
2022/12/21 21:02:47;;;;;;;3.80;2.90;;;10.70;99.90;;;;;;10430038;28;20249;-77
2022/12/21 21:07:48;;;;;;;5.40;3.00;;;10.70;99.90;;;;;;10435298;28;20222;-78
2022/12/21 21:12:51;;;;;;;5.03;3.33;;;10.80;99.90;;;;;;10432954;28;20223;-76
2022/12/21 21:17:54;;;;;;;3.73;3.13;;;10.80;99.90;;;;;;10435549;28;20231;-78
2022/12/21 21:23:01;;;;;;;6.37;3.63;;;10.80;99.90;;;;;;10430765;28;20692;-77
2022/12/21 21:28:23;;;;;;;5.90;4.13;;;10.80;99.90;;;;;;10436310;28;20685;-77
2022/12/21 21:33:23;;;;;;;5.23;4.60;;;10.80;99.90;;;;;;10430516;28;20228;-78
2022/12/21 21:43:55;;;;;;;6.50;5.20;;;10.70;99.90;;;;;;10434771;28;20249;-77
2022/12/21 21:48:55;;;;;;;5.97;4.97;;;10.70;99.90;;;;;;10431082;28;20917;-77
2022/12/21 21:53:56;;;;;;;7.03;5.87;;;10.80;99.90;;;;;;10435307;28;20226;-79
2022/12/21 21:58:56;;;;;;;7.50;6.00;;;10.90;99.90;;;;;;10431000;28;20231;-77
2022/12/21 22:03:57;;;;;;;9.40;6.10;;;10.90;99.90;;;;;;10432677;28;20222;-78
2022/12/21 22:08:58;;;;;;;9.00;5.50;;;10.90;99.90;;;;;;10430574;28;20224;-78
2022/12/21 22:14:04;;;;;;;6.83;5.60;;;11.00;99.90;;;;;;10432877;28;20236;-76
2022/12/21 22:19:13;;;;;;;7.23;5.03;;;11.00;99.90;;;;;;10427997;28;20362;-77
2022/12/21 22:46:01;;;;;;;6.50;4.77;;;11.10;99.90;;;;;;10426488;28;20219;-78
2022/12/21 22:51:11;;;;;;;6.40;4.93;;;11.00;99.90;;;;;;10435247;28;20218;-78
2022/12/21 22:56:17;;;;;;;5.57;4.93;;;11.10;99.90;;;;;;10444414;28;20253;-77
2022/12/21 23:01:19;;;;;;;7.40;4.20;;;11.00;99.90;;;;;;10440272;28;20221;-78
2022/12/21 23:06:21;;;;;;;7.30;4.17;;;11.10;99.90;;;;;;10425570;28;20265;-78
2022/12/21 23:11:27;;;;;;;5.10;3.60;;;11.00;99.90;;;;;;10433145;28;20311;-76
2022/12/21 23:16:27;;;;;;;5.73;3.70;;;11.00;99.90;;;;;;10431013;28;20223;-75
